Time;durP1;ratioP1;P1;durP2;ratioP2;P2;SDS_P1;SDS_P2;PMS_P1;PMS_P2;Temp;Humidity;BMP_temperature;BMP_pressure;BME280_temperature;BME280_humidity;BME280_pressure;Samples;Min_cycle;Max_cycle;Signal;HPM_P1;HPM_P2
2021/11/21 00:00:13;;;;;;;;;49.50;40.25;;;;;9.69;65.14;101298.91;5002624;28;45267;-45
2021/11/21 00:02:39;;;;;;;;;59.25;45.00;;;;;9.69;65.27;101309.41;5002036;28;45466;-48
2021/11/21 00:05:05;;;;;;;;;56.00;41.75;;;;;9.72;64.85;101305.91;5002192;28;46025;-46
2021/11/21 00:07:31;;;;;;;;;57.00;43.50;;;;;9.73;65.09;101297.16;5002113;28;45543;-46
2021/11/21 00:09:56;;;;;;;;;53.50;44.50;;;;;9.74;65.27;101299.78;5002391;28;45352;-48
2021/11/21 00:12:22;;;;;;;;;58.00;45.25;;;;;9.76;65.33;101303.28;5002075;28;45395;-49
2021/11/21 00:14:47;;;;;;;;;58.75;44.75;;;;;9.76;64.99;101292.78;5002254;28;45420;-47
2021/11/21 00:17:13;;;;;;;;;57.50;45.50;;;;;9.79;65.38;101286.66;5001854;28;45396;-47
2021/11/21 00:19:41;;;;;;;;;52.75;41.50;;;;;9.80;65.00;101290.13;5002000;28;45340;-47
2021/11/21 00:22:13;;;;;;;;;54.50;43.00;;;;;9.80;65.11;101285.78;5001831;28;45238;-47
2021/11/21 00:24:41;;;;;;;;;48.00;37.00;;;;;9.81;65.26;101277.03;5001955;28;45923;-50
2021/11/21 00:27:06;;;;;;;;;60.00;45.00;;;;;9.82;65.29;101272.63;5001875;28;45216;-49
2021/11/21 00:29:32;;;;;;;;;58.50;45.50;;;;;9.83;64.97;101272.63;5002166;28;45265;-49
2021/11/21 00:31:57;;;;;;;;;57.75;43.25;;;;;9.82;65.01;101265.63;5001805;28;45403;-50
2021/11/21 00:34:23;;;;;;;;;55.25;43.00;;;;;9.84;65.28;101273.53;5000650;28;45971;-49
2021/11/21 00:36:48;;;;;;;;;53.00;42.25;;;;;9.82;65.34;101265.63;5001720;28;45299;-46
2021/11/21 00:39:14;;;;;;;;;53.75;40.00;;;;;9.84;65.21;101270.91;5000615;28;45282;-49
2021/11/21 00:41:40;;;;;;;;;51.75;41.50;;;;;9.84;65.02;101268.28;5001727;28;45162;-47
2021/11/21 00:44:06;;;;;;;;;53.50;44.25;;;;;9.85;65.18;101270.88;5001715;28;45470;-46
2021/11/21 00:46:31;;;;;;;;;53.50;40.75;;;;;9.85;65.18;101264.75;5001660;28;45263;-51
2021/11/21 00:48:57;;;;;;;;;55.50;44.75;;;;;9.86;65.00;101264.75;5000500;28;45351;-46
2021/11/21 00:51:23;;;;;;;;;55.75;42.75;;;;;9.85;65.12;101267.38;5001315;28;45383;-46
2021/11/21 00:53:52;;;;;;;;;50.25;40.50;;;;;9.87;65.17;101263.00;5000197;28;46061;-46
2021/11/21 00:56:19;;;;;;;;;57.50;44.25;;;;;9.88;65.01;101254.25;5001428;28;45252;-47
2021/11/21 00:58:44;;;;;;;;;58.25;44.00;;;;;9.88;65.04;101247.22;5000320;28;45384;-47
2021/11/21 01:01:10;;;;;;;;;45.25;33.00;;;;;9.87;65.00;101236.75;5001286;28;45348;-47
2021/11/21 01:03:35;;;;;;;;;54.50;44.25;;;;;9.86;65.03;101241.13;5001633;28;45205;-46
2021/11/21 01:06:02;;;;;;;;;52.00;40.75;;;;;9.85;65.19;101239.38;5001121;28;45564;-48
2021/11/21 01:08:28;;;;;;;;;57.50;42.75;;;;;9.86;64.98;101229.75;5001717;28;45304;-46
2021/11/21 01:10:59;;;;;;;;;57.25;44.50;;;;;9.89;65.18;101232.38;5000958;28;46228;-47
2021/11/21 01:13:26;;;;;;;;;49.50;40.50;;;;;9.88;65.00;101234.09;4999949;28;47022;-50
2021/11/21 01:15:52;;;;;;;;;47.75;38.25;;;;;9.89;65.10;101235.84;5001048;28;45376;-50
2021/11/21 01:18:18;;;;;;;;;50.00;41.50;;;;;9.89;65.10;101240.25;5001322;28;45474;-49
2021/11/21 01:20:45;;;;;;;;;51.50;38.75;;;;;9.87;65.22;101242.00;5000751;28;45266;-49
2021/11/21 01:23:12;;;;;;;;;53.75;39.50;;;;;9.87;65.01;101237.63;5001027;28;46246;-47
2021/11/21 01:25:39;;;;;;;;;44.50;36.25;;;;;9.87;65.01;101234.13;5000878;28;45507;-50
2021/11/21 01:28:05;;;;;;;;;48.00;36.00;;;;;9.86;64.76;101228.00;4999842;28;45340;-46
2021/11/21 01:30:31;;;;;;;;;43.50;36.25;;;;;9.86;65.15;101235.00;4999498;28;45434;-48
2021/11/21 01:32:59;;;;;;;;;53.50;42.25;;;;;9.85;65.03;101228.00;5000877;28;45344;-46
2021/11/21 01:35:26;;;;;;;;;53.00;42.00;;;;;9.83;65.04;101221.91;5000700;28;45525;-49
2021/11/21 01:37:52;;;;;;;;;51.50;42.25;;;;;9.81;65.27;101223.63;4999689;28;45301;-48
2021/11/21 01:40:19;;;;;;;;;51.75;41.50;;;;;9.78;65.17;101211.41;5000541;28;45692;-50
2021/11/21 01:42:46;;;;;;;;;49.25;40.25;;;;;9.78;65.25;101221.03;5000736;28;46227;-50
2021/11/21 01:45:12;;;;;;;;;49.50;40.00;;;;;9.76;65.19;101223.69;5000375;28;45301;-48
2021/11/21 01:47:38;;;;;;;;;48.75;39.00;;;;;9.73;65.32;101215.78;5000827;28;45286;-50
2021/11/21 01:50:07;;;;;;;;;49.00;39.25;;;;;9.72;65.25;101216.66;5000413;28;45496;-45
2021/11/21 01:52:32;;;;;;;;;46.50;36.75;;;;;9.65;65.21;101213.19;5000728;28;46387;-46
2021/11/21 01:54:58;;;;;;;;;45.25;37.75;;;;;9.64;65.37;101214.06;5000228;28;45206;-46
2021/11/21 01:57:25;;;;;;;;;43.50;35.25;;;;;9.58;65.20;101219.31;5000926;28;45300;-46
2021/11/21 01:59:51;;;;;;;;;38.50;29.75;;;;;9.54;65.45;101215.84;5000339;28;45324;-48
2021/11/21 02:02:16;;;;;;;;;38.75;32.50;;;;;9.49;65.55;101222.84;4999048;28;45618;-47
2021/11/21 02:04:41;;;;;;;;;43.00;35.50;;;;;9.43;65.26;101217.59;5000208;28;45319;-46
2021/11/21 02:07:07;;;;;;;;;34.50;29.50;;;;;9.39;65.30;101214.13;4999383;28;45334;-46
2021/11/21 02:09:33;;;;;;;;;24.00;22.75;;;;;9.35;65.45;101201.88;5000277;28;45519;-48
2021/11/21 02:11:58;;;;;;;;;24.00;22.75;;;;;9.32;65.36;101193.16;5000464;28;46533;-46
2021/11/21 02:14:23;;;;;;;;;33.00;28.75;;;;;9.29;65.43;101211.53;5000370;28;45432;-45
2021/11/21 02:16:49;;;;;;;;;27.50;26.00;;;;;9.23;65.29;101208.03;5000441;28;45582;-49
2021/11/21 02:19:17;;;;;;;;;37.75;28.75;;;;;9.19;65.53;101206.28;4998776;28;45503;-46
2021/11/21 02:21:42;;;;;;;;;29.50;22.75;;;;;9.16;65.51;101205.44;4998940;28;47351;-49
2021/11/21 02:24:08;;;;;;;;;30.25;27.25;;;;;9.10;65.31;101201.06;4999933;28;45372;-47
2021/11/21 02:26:33;;;;;;;;;21.50;17.75;;;;;9.03;65.56;101201.91;5000648;28;45271;-48
2021/11/21 02:28:58;;;;;;;;;39.75;29.25;;;;;9.01;65.50;101201.06;5000081;28;45549;-47
2021/11/21 02:31:24;;;;;;;;;44.75;36.75;;;;;8.94;65.80;101192.31;5000190;28;46832;-47
2021/11/21 02:33:51;;;;;;;;;29.50;26.25;;;;;8.94;65.23;101197.56;4999942;28;45265;-47
2021/11/21 02:36:18;;;;;;;;;29.00;26.50;;;;;8.91;65.49;101187.94;5000078;28;45401;-49
2021/11/21 02:38:44;;;;;;;;;30.50;22.00;;;;;8.91;65.69;101189.69;4999721;28;45280;-47
2021/11/21 02:41:11;;;;;;;;;34.00;25.50;;;;;8.87;65.49;101180.97;4998626;28;47318;-45
2021/11/21 02:43:38;;;;;;;;;28.75;25.00;;;;;8.84;65.69;101178.34;4999792;28;45261;-46
2021/11/21 02:46:04;;;;;;;;;30.00;27.00;;;;;8.83;65.55;101175.72;5000116;28;45304;-46
2021/11/21 02:48:32;;;;;;;;;33.50;28.00;;;;;8.82;65.69;101172.22;4999855;28;45502;-45
2021/11/21 02:51:01;;;;;;;;;31.50;27.50;;;;;8.81;65.59;101170.47;4999612;28;45283;-46
2021/11/21 02:53:30;;;;;;;;;35.25;29.50;;;;;8.78;65.42;101158.25;4999698;28;45303;-46
2021/11/21 02:55:59;;;;;;;;;33.00;25.75;;;;;8.75;65.65;101160.00;4999876;28;45418;-49
2021/11/21 02:58:25;;;;;;;;;33.25;26.00;;;;;8.75;65.55;101158.25;5000869;28;45819;-46
2021/11/21 03:00:51;;;;;;;;;35.75;27.00;;;;;8.74;65.54;101160.84;5002957;28;47052;-45
2021/11/21 03:03:17;;;;;;;;;28.00;25.00;;;;;8.71;65.70;101151.25;5003386;28;45174;-46
2021/11/21 03:05:43;;;;;;;;;28.25;22.25;;;;;8.68;65.70;101146.03;5002993;28;45494;-48
2021/11/21 03:08:08;;;;;;;;;27.50;24.75;;;;;8.66;65.74;101142.53;5003382;28;45209;-48
2021/11/21 03:10:34;;;;;;;;;30.25;27.00;;;;;8.62;65.94;101133.78;5002898;28;45169;-46
2021/11/21 03:13:02;;;;;;;;;30.50;27.75;;;;;8.59;65.83;101136.41;5003186;28;45434;-47
2021/11/21 03:15:28;;;;;;;;;21.50;18.75;;;;;8.63;65.63;101132.06;5003167;28;45305;-49
2021/11/21 03:17:54;;;;;;;;;32.00;25.00;;;;;8.61;65.85;101118.06;5002926;28;45589;-49
2021/11/21 03:20:24;;;;;;;;;33.25;28.00;;;;;8.59;65.65;101112.84;5002766;28;46214;-48
2021/11/21 03:22:49;;;;;;;;;22.00;18.75;;;;;8.58;65.86;101116.31;5002930;28;45156;-48
2021/11/21 03:25:15;;;;;;;;;18.75;15.25;;;;;8.56;66.02;101109.34;5002827;28;45218;-46
2021/11/21 03:27:41;;;;;;;;;31.25;28.50;;;;;8.56;65.84;101109.34;5003036;28;45621;-48
2021/11/21 03:30:10;;;;;;;;;28.00;26.25;;;;;8.55;65.86;101105.88;5002721;28;46169;-50
2021/11/21 03:32:35;;;;;;;;;30.50;28.25;;;;;8.54;65.86;101114.59;5002764;28;45383;-48
2021/11/21 03:35:01;;;;;;;;;31.00;26.25;;;;;8.52;65.69;101110.22;5002639;28;45364;-47
2021/11/21 03:37:27;;;;;;;;;28.00;26.50;;;;;8.54;65.78;101111.97;5001650;28;45350;-48
2021/11/21 03:39:53;;;;;;;;;32.25;26.75;;;;;8.53;65.98;101115.44;5002497;28;46107;-48
2021/11/21 03:42:18;;;;;;;;;29.00;24.75;;;;;8.54;65.77;101116.31;5001440;28;45193;-50
2021/11/21 03:44:44;;;;;;;;;31.25;27.00;;;;;8.53;66.00;101110.22;5002913;28;45391;-49
2021/11/21 03:47:10;;;;;;;;;30.75;30.25;;;;;8.50;66.14;101107.56;5002860;28;45235;-46
2021/11/21 03:49:35;;;;;;;;;32.75;27.25;;;;;8.52;66.00;101111.09;5000975;28;45365;-47
2021/11/21 03:52:01;;;;;;;;;26.25;22.00;;;;;8.55;65.93;101110.22;5002506;28;45233;-48
2021/11/21 03:54:26;;;;;;;;;30.25;27.75;;;;;8.52;65.88;101097.97;5002609;28;45494;-47
2021/11/21 03:56:52;;;;;;;;;27.75;24.50;;;;;8.52;66.07;101103.22;5002417;28;45312;-47
2021/11/21 03:59:19;;;;;;;;;33.25;29.00;;;;;8.53;66.13;101101.47;5002466;28;45446;-46
2021/11/21 04:01:44;;;;;;;;;29.50;26.25;;;;;8.49;66.31;101100.63;5002129;28;45438;-47
2021/11/21 04:04:12;;;;;;;;;29.50;23.25;;;;;8.52;66.06;101102.38;5002269;28;45264;-47
2021/11/21 04:06:37;;;;;;;;;28.75;28.25;;;;;8.51;66.09;101096.22;5002427;28;45526;-45
2021/11/21 04:09:03;;;;;;;;;30.25;25.00;;;;;8.53;65.89;101102.34;5002009;28;46266;-49
2021/11/21 04:11:30;;;;;;;;;37.75;30.50;;;;;8.51;66.26;101101.47;5002413;28;45483;-49
2021/11/21 04:13:56;;;;;;;;;32.75;30.25;;;;;8.53;66.27;101106.69;5002318;28;45427;-48
2021/11/21 04:16:21;;;;;;;;;36.25;29.50;;;;;8.55;65.94;101100.63;5000666;28;45352;-49
2021/11/21 04:18:46;;;;;;;;;31.50;27.50;;;;;8.55;66.20;101095.38;5001987;28;45430;-50
2021/11/21 04:21:12;;;;;;;;;37.00;29.00;;;;;8.59;66.26;101089.25;5000588;28;45308;-48
2021/11/21 04:23:37;;;;;;;;;34.25;30.25;;;;;8.61;66.32;101086.63;5002039;28;45303;-49
2021/11/21 04:26:02;;;;;;;;;32.25;29.25;;;;;8.64;65.86;101076.16;5000798;28;45323;-49
2021/11/21 04:28:28;;;;;;;;;32.75;28.75;;;;;8.64;66.14;101075.28;5000630;28;45926;-46
2021/11/21 04:30:55;;;;;;;;;35.50;31.75;;;;;8.64;66.05;101068.31;5001912;28;45472;-49
2021/11/21 04:33:21;;;;;;;;;38.50;30.50;;;;;8.67;66.14;101070.91;5001964;28;45482;-48
2021/11/21 04:35:47;;;;;;;;;33.25;29.00;;;;;8.68;66.09;101064.81;5001842;28;45237;-48
2021/11/21 04:38:12;;;;;;;;;30.75;28.00;;;;;8.69;66.19;101063.94;5001645;28;45679;-46
2021/11/21 04:40:38;;;;;;;;;37.00;30.75;;;;;8.71;66.01;101064.78;5001795;28;45270;-49
2021/11/21 04:43:03;;;;;;;;;34.00;29.25;;;;;8.72;66.04;101065.69;5001871;28;45489;-50
2021/11/21 04:45:28;;;;;;;;;45.00;33.50;;;;;8.71;66.31;101059.53;5001819;28;45221;-46
2021/11/21 04:47:54;;;;;;;;;37.50;29.75;;;;;8.72;66.45;101052.56;5001742;28;45291;-50
2021/11/21 04:50:19;;;;;;;;;36.50;29.75;;;;;8.73;66.36;101051.66;5001404;28;45197;-50
2021/11/21 04:52:46;;;;;;;;;36.00;32.25;;;;;8.73;66.12;101049.94;5001755;28;45339;-48
2021/11/21 04:55:12;;;;;;;;;40.25;33.00;;;;;8.76;66.20;101049.06;5001687;28;45538;-50
2021/11/21 04:57:40;;;;;;;;;42.50;32.00;;;;;8.77;66.53;101046.44;5000132;28;47201;-49
2021/11/21 05:00:10;;;;;;;;;36.75;33.50;;;;;8.77;66.40;101051.69;5001519;28;45399;-47
2021/11/21 05:02:40;;;;;;;;;44.00;35.50;;;;;8.76;66.38;101044.69;5000102;28;45208;-47
2021/11/21 05:05:06;;;;;;;;;30.00;30.00;;;;;8.77;66.38;101045.56;5001113;28;45462;-47
2021/11/21 05:07:31;;;;;;;;;47.00;34.50;;;;;8.75;66.48;101031.59;5001102;28;45372;-45
2021/11/21 05:09:57;;;;;;;;;45.25;33.50;;;;;8.80;66.31;101035.06;5001252;28;45151;-47
2021/11/21 05:12:23;;;;;;;;;35.00;31.00;;;;;8.81;66.40;101030.72;5001417;28;45229;-49
2021/11/21 05:14:49;;;;;;;;;34.00;31.75;;;;;8.78;66.31;101027.22;5001395;28;45386;-50
2021/11/21 05:17:14;;;;;;;;;46.00;36.00;;;;;8.82;66.42;101019.34;4999712;28;47882;-48
2021/11/21 05:19:39;;;;;;;;;41.50;31.50;;;;;8.81;66.33;101028.09;5000485;28;45217;-47
2021/11/21 05:22:05;;;;;;;;;40.00;32.50;;;;;8.82;66.60;101017.59;5001290;28;45237;-48
2021/11/21 05:24:30;;;;;;;;;38.00;32.25;;;;;8.84;66.60;101015.88;5001058;28;45372;-47
2021/11/21 05:26:56;;;;;;;;;37.00;29.75;;;;;8.84;66.91;101017.59;5000991;28;46850;-45
2021/11/21 05:29:22;;;;;;;;;35.50;27.25;;;;;8.85;66.70;101019.34;5001104;28;45379;-47
2021/11/21 05:31:47;;;;;;;;;40.75;28.50;;;;;8.85;66.62;101019.34;5000020;28;45328;-47
2021/11/21 05:34:14;;;;;;;;;41.00;34.25;;;;;8.86;66.39;101015.84;5000889;28;45446;-48
2021/11/21 05:36:40;;;;;;;;;43.25;34.75;;;;;8.83;66.54;101007.97;5000853;28;45936;-46
2021/11/21 05:39:05;;;;;;;;;41.50;33.25;;;;;8.85;66.54;101009.72;5000807;28;45309;-50
2021/11/21 05:41:31;;;;;;;;;36.25;27.25;;;;;8.85;66.55;101016.72;5000964;28;45293;-48
2021/11/21 05:43:56;;;;;;;;;38.75;28.25;;;;;8.85;66.76;101021.97;5001046;28;45296;-50
2021/11/21 05:46:21;;;;;;;;;33.25;29.50;;;;;8.82;66.78;101014.97;5000656;28;45233;-49
2021/11/21 05:48:47;;;;;;;;;36.00;30.25;;;;;8.84;66.77;101012.34;5000828;28;45344;-49
2021/11/21 05:51:12;;;;;;;;;29.75;28.75;;;;;8.80;66.43;101008.88;4999238;28;45252;-46
2021/11/21 05:53:38;;;;;;;;;43.00;31.50;;;;;8.81;66.63;101012.38;4999352;28;45190;-49
2021/11/21 05:56:04;;;;;;;;;39.50;28.25;;;;;8.82;66.84;101012.38;5000540;28;46650;-45
2021/11/21 05:58:29;;;;;;;;;34.50;27.00;;;;;8.84;66.78;101009.72;5000627;28;45209;-49
2021/11/21 06:00:55;;;;;;;;;36.25;33.25;;;;;8.82;66.74;101006.22;5000425;28;45216;-48
2021/11/21 06:03:20;;;;;;;;;32.00;27.00;;;;;8.86;66.65;101008.00;5000798;28;45316;-46
2021/11/21 06:05:46;;;;;;;;;30.75;29.25;;;;;8.86;66.54;101002.75;5000196;28;45884;-46
2021/11/21 06:08:11;;;;;;;;;41.50;30.25;;;;;8.87;66.44;100999.25;5000622;28;45224;-47
2021/11/21 06:10:36;;;;;;;;;34.50;30.00;;;;;8.88;66.86;101000.97;4982657;28;45390;-47
2021/11/21 06:13:02;;;;;;;;;35.50;27.00;;;;;8.89;66.46;100994.88;4999238;28;45397;-47
2021/11/21 06:15:27;;;;;;;;;35.50;30.50;;;;;8.91;66.50;100993.13;4999023;28;45387;-46
2021/11/21 06:17:53;;;;;;;;;31.50;27.00;;;;;8.91;66.71;100993.13;4999011;28;45252;-49
2021/11/21 06:20:18;;;;;;;;;29.25;25.00;;;;;8.92;66.51;100998.34;5000133;28;45286;-46
2021/11/21 06:22:44;;;;;;;;;28.75;27.00;;;;;8.91;66.66;101006.22;5000412;28;45356;-47
2021/11/21 06:25:10;;;;;;;;;40.00;30.75;;;;;8.91;66.85;101001.84;5000217;28;45303;-46
2021/11/21 06:27:37;;;;;;;;;32.25;25.50;;;;;8.92;66.85;101002.72;5000365;28;45284;-45
2021/11/21 06:30:04;;;;;;;;;36.75;29.25;;;;;8.91;66.74;100998.34;4998896;28;45445;-48
2021/11/21 06:32:30;;;;;;;;;31.75;29.25;;;;;8.93;66.54;100997.47;4998966;28;45378;-48
2021/11/21 06:34:55;;;;;;;;;36.75;26.50;;;;;8.95;66.62;101005.34;4999883;28;46201;-46
2021/11/21 06:37:20;;;;;;;;;34.50;30.50;;;;;8.95;66.96;101002.72;5000105;28;45408;-48
2021/11/21 06:39:46;;;;;;;;;31.50;29.25;;;;;8.94;66.70;100995.72;5000053;28;45170;-46
2021/11/21 06:42:12;;;;;;;;;39.25;32.00;;;;;8.94;66.87;100990.47;5000073;28;45414;-46
2021/11/21 06:44:39;;;;;;;;;35.00;32.50;;;;;8.92;66.72;100993.09;5000051;28;46030;-47
2021/11/21 06:47:05;;;;;;;;;37.00;28.75;;;;;8.93;66.89;100993.97;5000122;28;45414;-46
2021/11/21 06:49:31;;;;;;;;;33.75;29.00;;;;;8.93;66.61;100994.84;4999746;28;45336;-47
2021/11/21 06:51:56;;;;;;;;;30.25;27.25;;;;;8.95;66.96;100989.59;4998706;28;45551;-45
2021/11/21 06:54:22;;;;;;;;;36.25;28.25;;;;;8.94;66.78;100982.59;4999725;28;46145;-45
2021/11/21 06:56:47;;;;;;;;;34.25;28.75;;;;;8.93;66.70;100984.38;4999968;28;45231;-46
2021/11/21 06:59:13;;;;;;;;;31.00;23.00;;;;;8.91;66.87;100985.25;4998827;28;45419;-47
2021/11/21 07:01:41;;;;;;;;;34.25;23.00;;;;;8.93;66.80;100988.72;4999724;28;45537;-47
2021/11/21 07:04:06;;;;;;;;;32.25;26.25;;;;;8.93;66.78;100983.47;4995215;28;45263;-45
2021/11/21 07:06:33;;;;;;;;;31.75;23.00;;;;;8.91;66.58;100986.13;4999854;28;45395;-45
2021/11/21 07:08:59;;;;;;;;;30.75;28.00;;;;;8.92;66.76;100981.75;4999852;28;45470;-44
2021/11/21 07:11:25;;;;;;;;;30.50;27.50;;;;;8.91;66.93;100987.88;4999691;28;45324;-46
2021/11/21 07:13:51;;;;;;;;;33.75;24.50;;;;;8.89;66.83;100981.75;4998195;28;46073;-46
2021/11/21 07:16:16;;;;;;;;;28.75;27.25;;;;;8.90;66.81;100988.75;4999896;28;45198;-46
2021/11/21 07:18:42;;;;;;;;;30.75;25.75;;;;;8.85;66.70;100985.28;4999611;28;45205;-49
2021/11/21 07:21:08;;;;;;;;;36.25;29.00;;;;;8.87;66.70;100988.78;4999506;28;45285;-46
2021/11/21 07:23:34;;;;;;;;;34.50;25.50;;;;;8.86;66.95;100997.50;4999401;28;45987;-47
2021/11/21 07:26:00;;;;;;;;;36.75;29.50;;;;;8.83;66.87;100990.53;4999587;28;45208;-45
2021/11/21 07:28:26;;;;;;;;;37.00;30.00;;;;;8.83;66.85;100987.00;4999449;28;45229;-46
2021/11/21 07:30:51;;;;;;;;;36.75;28.50;;;;;8.83;67.14;100981.78;4999493;28;45473;-45
2021/11/21 07:33:17;;;;;;;;;33.25;28.50;;;;;8.81;66.77;100981.78;4999239;28;45368;-46
2021/11/21 07:35:42;;;;;;;;;36.00;29.00;;;;;8.81;67.11;100986.16;4999255;28;45340;-47
2021/11/21 07:38:07;;;;;;;;;38.75;29.75;;;;;8.81;67.08;100986.16;4999425;28;45465;-46
2021/11/21 07:40:33;;;;;;;;;31.25;27.50;;;;;8.81;67.06;100983.56;4999322;28;45450;-46
2021/11/21 07:42:59;;;;;;;;;34.25;30.00;;;;;8.80;66.72;100984.41;4999601;28;45966;-45
2021/11/21 07:45:24;;;;;;;;;44.25;30.00;;;;;8.80;66.63;100987.03;5001380;28;45305;-47
2021/11/21 07:47:49;;;;;;;;;35.25;30.00;;;;;8.81;66.82;100988.78;5001445;28;45320;-47
2021/11/21 07:50:15;;;;;;;;;31.50;26.50;;;;;8.81;66.81;100992.28;5001126;28;45489;-48
2021/11/21 07:52:41;;;;;;;;;37.50;35.00;;;;;8.81;66.92;100986.16;5002518;28;46962;-46
2021/11/21 07:55:08;;;;;;;;;34.50;25.25;;;;;8.80;66.97;100985.28;5002330;28;45256;-48
2021/11/21 07:57:34;;;;;;;;;30.50;27.75;;;;;8.81;66.94;100971.31;5002500;28;45237;-47
2021/11/21 07:59:59;;;;;;;;;30.25;25.00;;;;;8.81;66.72;100978.31;5002296;28;45224;-48
2021/11/21 08:02:24;;;;;;;;;29.25;25.50;;;;;8.81;66.94;100979.16;5000931;28;46527;-47
2021/11/21 08:04:50;;;;;;;;;32.75;28.00;;;;;8.80;67.06;100966.94;5002241;28;45319;-48
2021/11/21 08:07:15;;;;;;;;;31.25;24.50;;;;;8.78;67.10;100968.72;5001235;28;45281;-46
2021/11/21 08:09:41;;;;;;;;;31.25;25.50;;;;;8.79;66.82;100970.44;5002045;28;45602;-46
2021/11/21 08:12:07;;;;;;;;;33.75;26.50;;;;;8.78;66.79;100980.06;5002233;28;46140;-45
2021/11/21 08:14:33;;;;;;;;;34.00;28.00;;;;;8.81;67.19;100970.44;5002000;28;45345;-48
2021/11/21 08:16:58;;;;;;;;;30.25;24.00;;;;;8.83;66.80;100980.03;5002251;28;45265;-45
2021/11/21 08:19:23;;;;;;;;;33.75;27.50;;;;;8.84;66.81;100973.03;5001940;28;45469;-46
2021/11/21 08:21:49;;;;;;;;;29.25;29.00;;;;;8.86;66.71;100968.69;5002081;28;45316;-48
2021/11/21 08:24:14;;;;;;;;;29.00;27.75;;;;;8.83;66.76;100972.19;5002004;28;45253;-49
2021/11/21 08:26:39;;;;;;;;;29.25;25.50;;;;;8.82;66.85;100973.06;5002250;28;45315;-47
2021/11/21 08:29:05;;;;;;;;;33.25;28.75;;;;;8.84;66.86;100971.31;5002035;28;45585;-48
2021/11/21 08:31:31;;;;;;;;;30.75;28.25;;;;;8.85;66.77;100972.16;5001928;28;46555;-47
2021/11/21 08:33:57;;;;;;;;;28.00;20.50;;;;;8.84;66.94;100971.31;5000295;28;46487;-48
2021/11/21 08:36:23;;;;;;;;;36.00;28.25;;;;;8.82;67.24;100966.91;5002003;28;45252;-46
2021/11/21 08:38:48;;;;;;;;;30.25;25.50;;;;;8.83;66.81;100971.28;5001538;28;45425;-46
2021/11/21 08:41:14;;;;;;;;;29.00;24.00;;;;;8.83;67.29;100974.81;5001815;28;46104;-48
2021/11/21 08:43:39;;;;;;;;;25.25;22.75;;;;;8.83;67.21;100973.91;5001762;28;45217;-47
2021/11/21 08:46:05;;;;;;;;;23.50;22.50;;;;;8.82;67.27;100970.44;5001973;28;45229;-45
2021/11/21 08:48:31;;;;;;;;;26.75;23.00;;;;;8.80;66.83;100963.47;5001698;28;45170;-46
2021/11/21 08:50:57;;;;;;;;;30.25;24.00;;;;;8.78;67.11;100959.09;5001450;28;45217;-46
2021/11/21 08:53:22;;;;;;;;;33.00;27.50;;;;;8.77;67.05;100961.72;5001465;28;45471;-46
2021/11/21 08:55:48;;;;;;;;;31.00;23.75;;;;;8.78;67.03;100968.72;5000833;28;45304;-45
2021/11/21 08:58:13;;;;;;;;;30.75;24.25;;;;;8.77;67.08;100973.06;5001534;28;45316;-46
2021/11/21 09:00:38;;;;;;;;;28.50;22.00;;;;;8.79;67.12;100975.66;5001407;28;46471;-46
2021/11/21 09:03:04;;;;;;;;;26.25;20.50;;;;;8.79;67.15;100975.66;5001290;28;45325;-46
2021/11/21 09:05:30;;;;;;;;;35.50;31.25;;;;;8.79;67.13;100967.81;5001555;28;45343;-47
2021/11/21 09:07:56;;;;;;;;;39.00;32.50;;;;;8.84;67.13;100970.41;5001364;28;45402;-50
2021/11/21 09:10:22;;;;;;;;;34.25;30.00;;;;;8.86;67.04;100968.69;4999912;28;45867;-47
2021/11/21 09:12:48;;;;;;;;;22.75;20.25;;;;;8.90;66.95;100970.41;5001274;28;45437;-46
2021/11/21 09:15:17;;;;;;;;;22.25;15.75;;;;;8.92;67.00;100964.28;5001402;28;45238;-48
2021/11/21 09:17:46;;;;;;;;;33.25;28.00;;;;;8.94;67.14;100956.41;5000913;28;45507;-48
2021/11/21 09:20:13;;;;;;;;;29.00;25.25;;;;;8.96;67.13;100961.66;5000837;28;46678;-50
2021/11/21 09:22:39;;;;;;;;;32.50;28.25;;;;;9.00;67.15;100958.13;5001266;28;45190;-47
2021/11/21 09:25:05;;;;;;;;;30.00;24.25;;;;;9.01;67.15;100959.88;4999736;28;45282;-47
2021/11/21 09:27:31;;;;;;;;;39.25;29.25;;;;;9.01;67.30;100960.75;5001088;28;45383;-45
2021/11/21 09:29:56;;;;;;;;;28.25;24.75;;;;;9.01;67.02;100949.41;5000868;28;46539;-45
2021/11/21 09:32:22;;;;;;;;;31.50;28.50;;;;;9.02;67.12;100954.63;5001138;28;45412;-46
2021/11/21 09:34:47;;;;;;;;;31.50;28.50;;;;;9.04;67.05;100949.38;5000930;28;45315;-49
2021/11/21 09:37:13;;;;;;;;;35.25;28.50;;;;;8.99;67.29;100936.28;4999713;28;45625;-47
2021/11/21 09:39:39;;;;;;;;;29.75;26.25;;;;;9.00;67.14;100948.50;5000794;28;45341;-49
2021/11/21 09:42:05;;;;;;;;;32.75;27.50;;;;;9.04;67.16;100955.50;5000772;28;45323;-47
2021/11/21 09:44:30;;;;;;;;;28.25;26.25;;;;;9.07;67.24;100960.72;5001010;28;45386;-47
2021/11/21 09:46:56;;;;;;;;;34.50;29.75;;;;;9.13;67.29;100964.19;5001045;28;45316;-45
2021/11/21 09:49:26;;;;;;;;;31.50;25.25;;;;;9.14;67.19;100960.69;5000719;28;45233;-48
2021/11/21 09:51:51;;;;;;;;;33.75;28.00;;;;;9.20;67.05;100968.53;5000666;28;45418;-45
2021/11/21 09:54:18;;;;;;;;;30.75;29.25;;;;;9.22;67.08;100962.41;5000511;28;45325;-46
2021/11/21 09:56:44;;;;;;;;;28.25;24.25;;;;;9.26;67.17;100958.88;5000651;28;45265;-49
2021/11/21 09:59:10;;;;;;;;;30.50;25.50;;;;;9.30;67.34;100962.34;5000460;28;46295;-48
2021/11/21 10:01:43;;;;;;;;;32.00;26.50;;;;;9.33;67.17;100966.72;5000307;28;45455;-52
2021/11/21 10:04:12;;;;;;;;;34.50;29.25;;;;;9.35;67.40;100959.72;5000301;28;45341;-47
2021/11/21 10:06:45;;;;;;;;;31.25;24.00;;;;;9.37;67.35;100964.06;5000406;28;45216;-46
2021/11/21 10:09:13;;;;;;;;;30.50;24.50;;;;;9.39;67.22;100962.28;5000178;28;45503;-47
2021/11/21 10:12:00;;;;;;;;;35.25;29.50;;;;;9.43;67.25;100960.53;5000333;28;46121;-49
2021/11/21 10:14:26;;;;;;;;;38.00;32.25;;;;;9.46;67.25;100959.63;5000327;28;45379;-44
2021/11/21 10:16:51;;;;;;;;;35.50;31.50;;;;;9.48;67.05;100966.63;5000061;28;45435;-48
2021/11/21 10:19:17;;;;;;;;;37.25;32.00;;;;;9.50;67.04;100950.91;4999976;28;46306;-45
2021/11/21 10:21:50;;;;;;;;;33.75;30.00;;;;;9.55;67.24;100954.34;5000322;28;45265;-47
2021/11/21 10:24:24;;;;;;;;;45.50;35.25;;;;;9.57;67.03;100945.59;5000261;28;45237;-45
2021/11/21 10:27:18;;;;;;;;;46.25;35.75;;;;;9.60;67.11;100939.44;5000066;28;45431;-44
2021/11/21 10:29:50;;;;;;;;;37.00;32.25;;;;;9.63;67.35;100942.03;5000246;28;47128;-47
2021/11/21 10:32:18;;;;;;;;;37.50;32.00;;;;;9.66;67.28;100943.75;4999972;28;45292;-45
2021/11/21 10:34:51;;;;;;;;;37.00;32.75;;;;;9.67;67.35;100943.78;4999985;28;45311;-49
2021/11/21 10:37:18;;;;;;;;;35.50;32.25;;;;;9.67;67.37;100938.53;5000060;28;45269;-45
2021/11/21 10:39:45;;;;;;;;;35.00;27.50;;;;;9.69;67.12;100926.25;4998456;28;47584;-44
2021/11/21 10:42:11;;;;;;;;;35.75;33.25;;;;;9.72;67.04;100930.59;4998722;28;45288;-47
2021/11/21 10:44:48;;;;;;;;;37.25;29.25;;;;;9.75;67.39;100933.22;5000085;28;45368;-45
2021/11/21 10:47:13;;;;;;;;;39.00;32.00;;;;;9.77;67.37;100926.19;5000009;28;45324;-44
2021/11/21 10:49:39;;;;;;;;;36.50;31.50;;;;;9.80;67.31;100920.03;4999557;28;46026;-48
2021/11/21 10:52:06;;;;;;;;;32.75;27.25;;;;;9.82;67.09;100920.91;4998660;28;45345;-46
2021/11/21 10:54:45;;;;;;;;;34.75;31.25;;;;;9.84;67.15;100917.38;4999900;28;45507;-46
2021/11/21 10:57:14;;;;;;;;;45.25;35.00;;;;;9.85;67.26;100916.50;4999860;28;45317;-47
2021/11/21 10:59:49;;;;;;;;;37.25;30.25;;;;;9.90;67.18;100919.97;4999643;28;46365;-46
2021/11/21 11:02:26;;;;;;;;;40.50;34.50;;;;;9.95;67.17;100925.19;4998277;28;45371;-46
2021/11/21 11:05:02;;;;;;;;;33.75;28.75;;;;;9.97;67.13;100922.53;4998398;28;45344;-47
2021/11/21 11:07:29;;;;;;;;;35.50;31.75;;;;;10.00;67.31;100915.50;4999600;28;45230;-45
2021/11/21 11:09:55;;;;;;;;;51.50;41.25;;;;;10.03;67.21;100909.34;4999657;28;46170;-46
2021/11/21 11:12:24;;;;;;;;;57.25;41.50;;;;;10.06;67.18;100912.81;4999388;28;45307;-45